Time;durP1;ratioP1;P1;durP2;ratioP2;P2;SDS_P1;SDS_P2;PMS_P1;PMS_P2;Temp;Humidity;BMP_temperature;BMP_pressure;BME280_temperature;BME280_humidity;BME280_pressure;Samples;Min_cycle;Max_cycle;Signal;HPM_P1;HPM_P2
2023/08/09 00:01:04;;;;;;;;;4.50;1.00;;;;;16.45;78.75;101206.88;5007517;28;8867;-68
2023/08/09 00:03:31;;;;;;;;;2.00;1.50;;;;;16.45;78.76;101208.78;5003712;28;8835;-68
2023/08/09 00:05:58;;;;;;;;;2.00;1.00;;;;;16.43;79.12;101211.69;5013646;28;8889;-68
2023/08/09 00:08:24;;;;;;;;;1.50;1.50;;;;;16.40;78.73;101214.03;5012832;28;9018;-68
2023/08/09 00:10:51;;;;;;;;;1.00;1.00;;;;;16.38;78.73;101205.28;5011991;28;8843;-67
2023/08/09 00:13:17;;;;;;;;;2.00;1.00;;;;;16.36;78.99;101213.63;5008484;28;8892;-67
2023/08/09 00:15:43;;;;;;;;;1.67;1.33;;;;;16.35;79.09;101208.44;5008658;28;8847;-68
2023/08/09 00:18:10;;;;;;;;;2.33;1.67;;;;;16.32;78.85;101217.84;5008051;28;9005;-68
2023/08/09 00:20:36;;;;;;;;;1.00;1.00;;;;;16.31;79.20;101214.31;5013360;28;8985;-68
2023/08/09 00:23:03;;;;;;;;;3.67;2.00;;;;;16.30;78.95;101211.84;5006890;28;8982;-68
2023/08/09 00:25:30;;;;;;;;;1.00;1.00;;;;;16.28;79.08;101211.22;5006636;28;9174;-68
2023/08/09 00:27:57;;;;;;;;;2.00;1.33;;;;;16.24;78.64;101210.81;4991515;28;8951;-68
2023/08/09 00:30:24;;;;;;;;;1.00;1.00;;;;;16.21;79.09;101221.31;5008908;28;9037;-68
2023/08/09 00:32:50;;;;;;;;;1.00;1.00;;;;;16.17;78.83;101218.22;5023869;28;9078;-68
2023/08/09 00:35:17;;;;;;;;;2.00;2.00;;;;;16.15;78.75;101220.31;5004513;28;9143;-68
2023/08/09 00:37:43;;;;;;;;;2.00;1.00;;;;;16.13;79.09;101218.88;5013062;28;9059;-68
2023/08/09 00:40:13;;;;;;;;;3.00;2.00;;;;;16.10;78.77;101225.59;5020630;28;9009;-68
2023/08/09 00:42:41;;;;;;;;;2.00;2.00;;;;;16.10;78.77;101224.75;5004692;28;9787;-68
2023/08/09 00:45:08;;;;;;;;;3.00;2.00;;;;;16.08;79.15;101227.66;5010725;28;8931;-68
2023/08/09 00:47:35;;;;;;;;;5.00;1.00;;;;;16.07;79.19;101231.44;5009787;28;9065;-69
2023/08/09 00:50:03;;;;;;;;;2.33;1.67;;;;;16.04;79.06;101231.88;5001852;28;8994;-69
2023/08/09 00:52:29;;;;;;;;;2.00;2.00;;;;;16.05;79.26;101236.28;4993714;28;9078;-67
2023/08/09 00:54:57;;;;;;;;;1.67;1.67;;;;;16.03;78.94;101228.34;5004246;28;8992;-69
2023/08/09 00:57:23;;;;;;;;;1.00;1.00;;;;;16.03;78.87;101230.22;5008557;28;9124;-69
2023/08/09 00:59:50;;;;;;;;;4.33;2.00;;;;;16.01;79.38;101230.47;5008581;28;8963;-68
2023/08/09 01:02:16;;;;;;;;;4.33;3.00;;;;;16.01;79.35;101230.47;4997811;28;9036;-68
2023/08/09 01:04:44;;;;;;;;;2.33;2.00;;;;;15.98;78.90;101225.47;5000167;28;9690;-69
2023/08/09 01:07:27;;;;;;;;;4.00;4.00;;;;;15.96;78.93;101229.44;5006774;28;9360;-68
2023/08/09 01:10:02;;;;;;;;;3.00;3.00;;;;;15.92;78.72;101236.38;5004264;28;9103;-68
2023/08/09 01:12:37;;;;;;;;;3.00;3.00;;;;;15.90;78.74;101235.75;5007748;28;9150;-69
2023/08/09 01:15:06;;;;;;;;;2.33;2.33;;;;;15.88;78.80;101241.44;5005627;28;9260;-69
2023/08/09 01:17:34;;;;;;;;;3.00;3.00;;;;;15.85;78.82;101243.75;5010538;28;9715;-68
2023/08/09 01:20:04;;;;;;;;;2.67;2.67;;;;;15.83;79.08;101241.22;5025323;28;9624;-68
2023/08/09 01:22:32;;;;;;;;;2.33;2.33;;;;;15.79;78.78;101240.84;5005493;28;9078;-67
2023/08/09 01:25:03;;;;;;;;;3.67;3.67;;;;;15.75;78.91;101247.75;5000955;28;9087;-69
2023/08/09 01:27:31;;;;;;;;;7.33;5.33;;;;;15.72;78.69;101244.66;5011103;28;9363;-69
2023/08/09 01:29:57;;;;;;;;;3.00;3.00;;;;;15.70;78.93;101250.28;5005016;28;9233;-68
2023/08/09 01:32:25;;;;;;;;;3.67;3.67;;;;;15.68;78.91;101243.44;5007615;28;9385;-69
2023/08/09 01:34:52;;;;;;;;;5.33;3.00;;;;;15.66;79.14;101251.78;5004760;28;9999;-68
2023/08/09 01:38:03;;;;;;;;;4.00;3.00;;;;;15.64;78.88;101253.00;5014952;28;9205;-67
2023/08/09 01:40:31;;;;;;;;;4.67;4.67;;;;;15.59;78.84;101257.19;5000388;28;9196;-69
2023/08/09 01:42:58;;;;;;;;;4.67;4.67;;;;;15.58;79.06;101254.72;5010534;28;9278;-67
2023/08/09 01:45:26;;;;;;;;;7.00;5.00;;;;;15.57;78.56;101253.88;5001868;28;9173;-68
2023/08/09 01:47:52;;;;;;;;;5.00;5.00;;;;;15.55;78.81;101249.72;5009904;28;9227;-69
2023/08/09 01:50:23;;;;;;;;;4.00;4.00;;;;;15.53;78.50;101249.13;5002177;28;9159;-67
2023/08/09 01:52:50;;;;;;;;;3.33;3.00;;;;;15.51;78.71;101251.19;5009791;28;9364;-68
2023/08/09 01:55:19;;;;;;;;;9.00;6.33;;;;;15.49;78.45;101256.03;5010636;28;9227;-69
2023/08/09 01:57:47;;;;;;;;;6.00;5.00;;;;;15.47;78.94;101258.94;5006365;28;9430;-69
2023/08/09 02:00:17;;;;;;;;;7.00;6.33;;;;;15.48;78.84;101257.09;5008682;28;9248;-68
2023/08/09 02:02:44;;;;;;;;;6.67;6.67;;;;;15.47;78.74;101253.50;5003614;28;9239;-67
2023/08/09 02:05:11;;;;;;;;;5.33;5.33;;;;;15.47;79.01;101247.25;5009611;28;10158;-69
2023/08/09 02:07:39;;;;;;;;;7.25;4.75;;;;;15.48;79.07;101259.78;5008491;28;10276;-68
2023/08/09 02:10:07;;;;;;;;;5.00;5.00;;;;;15.48;79.29;101260.63;5009624;28;9526;-69
2023/08/09 02:12:34;;;;;;;;;7.50;7.50;;;;;15.47;79.34;101267.06;5009846;28;9379;-68
2023/08/09 02:15:00;;;;;;;;;6.67;5.67;;;;;15.47;79.12;101269.78;5008014;28;10205;-68
2023/08/09 02:17:27;;;;;;;;;6.33;6.00;;;;;15.45;79.32;101265.66;5008779;28;9320;-68
2023/08/09 02:19:56;;;;;;;;;4.33;4.33;;;;;15.44;79.32;101270.25;5009724;28;9471;-68
2023/08/09 02:22:23;;;;;;;;;6.50;6.50;;;;;15.43;79.19;101273.16;5010100;28;9342;-69
2023/08/09 02:24:49;;;;;;;;;6.50;6.50;;;;;15.39;79.08;101269.22;5019667;28;9602;-69
2023/08/09 02:27:16;;;;;;;;;8.00;5.67;;;;;15.35;78.91;101274.22;5009749;28;9484;-68
2023/08/09 02:29:42;;;;;;;;;3.00;3.00;;;;;15.32;78.85;101277.41;5008521;28;9484;-67
2023/08/09 02:32:09;;;;;;;;;6.00;6.00;;;;;15.30;78.81;101279.47;5023837;28;9314;-68
2023/08/09 02:34:36;;;;;;;;;4.33;4.33;;;;;15.27;78.88;101280.75;5000427;28;9480;-68
2023/08/09 02:37:04;;;;;;;;;4.00;4.00;;;;;15.26;79.06;101275.53;5011049;28;9373;-68
2023/08/09 02:39:31;;;;;;;;;5.00;5.00;;;;;15.22;78.71;101280.53;5001975;28;9309;-67
2023/08/09 02:41:59;;;;;;;;;4.33;4.00;;;;;15.21;79.06;101276.16;5004359;28;9239;-68
2023/08/09 02:44:25;;;;;;;;;7.00;5.33;;;;;15.21;79.04;101281.59;5008015;28;9419;-69
2023/08/09 02:46:52;;;;;;;;;3.67;3.67;;;;;15.19;78.72;101288.28;5005711;28;9369;-68
2023/08/09 02:49:18;;;;;;;;;6.00;5.33;;;;;15.16;78.68;101289.56;5024447;28;9311;-68
2023/08/09 02:51:44;;;;;;;;;3.00;2.00;;;;;15.15;78.80;101287.03;5008132;28;9452;-67
2023/08/09 02:54:11;;;;;;;;;5.00;3.67;;;;;15.15;78.98;101296.03;5003020;28;9311;-69
2023/08/09 02:56:38;;;;;;;;;4.00;3.00;;;;;15.14;79.01;101297.03;5025069;28;9247;-69
2023/08/09 02:59:04;;;;;;;;;4.00;4.00;;;;;15.13;78.80;101294.56;4988951;28;9416;-66
2023/08/09 03:01:31;;;;;;;;;2.00;2.00;;;;;15.13;78.99;101300.81;5000273;28;9444;-67
2023/08/09 03:03:59;;;;;;;;;5.00;5.00;;;;;15.09;78.93;101296.88;4991302;28;9191;-68
2023/08/09 03:06:26;;;;;;;;;4.00;4.00;;;;;15.07;78.79;101307.09;5009491;28;9189;-68
2023/08/09 03:08:53;;;;;;;;;5.00;4.67;;;;;15.04;78.51;101307.53;5009467;28;9180;-68
2023/08/09 03:11:25;;;;;;;;;3.00;3.00;;;;;15.01;78.56;101308.78;5009204;28;9328;-68
2023/08/09 03:13:52;;;;;;;;;6.33;4.33;;;;;15.00;78.55;101311.69;5006476;28;9322;-68
2023/08/09 03:16:20;;;;;;;;;6.00;5.67;;;;;14.98;78.73;101314.59;5007210;23;9612;-69
2023/08/09 03:18:47;;;;;;;;;3.33;3.33;;;;;14.97;78.66;101317.53;4982541;28;9603;-69
2023/08/09 03:21:14;;;;;;;;;5.00;5.00;;;;;14.95;78.86;101319.63;4986484;28;9466;-69
2023/08/09 03:23:41;;;;;;;;;3.00;3.00;;;;;14.92;78.46;101317.34;4992137;28;9488;-69
2023/08/09 03:26:08;;;;;;;;;4.00;4.00;;;;;14.90;78.67;101305.88;4989459;28;9398;-69
2023/08/09 03:28:36;;;;;;;;;3.67;3.67;;;;;14.88;78.70;101307.97;5001433;28;9616;-69
2023/08/09 03:31:06;;;;;;;;;4.33;3.33;;;;;14.84;78.45;101319.22;4986980;28;9385;-69
2023/08/09 03:33:36;;;;;;;;;5.33;5.33;;;;;14.81;78.62;101318.81;5001602;28;9380;-69
2023/08/09 03:36:04;;;;;;;;;4.67;3.00;;;;;14.79;78.43;101323.63;4999918;28;9319;-69
2023/08/09 03:38:30;;;;;;;;;4.00;4.00;;;;;14.78;78.33;101330.06;4989451;28;9336;-69
2023/08/09 03:40:57;;;;;;;;;6.33;6.33;;;;;14.76;78.63;101332.16;4989231;28;9408;-69
2023/08/09 03:43:23;;;;;;;;;6.33;4.00;;;;;14.73;78.52;101332.59;4988286;28;9317;-69
2023/08/09 03:45:50;;;;;;;;;4.00;3.33;;;;;14.72;78.64;101334.47;5004400;28;9399;-69
2023/08/09 03:48:19;;;;;;;;;2.00;2.00;;;;;14.71;78.53;101334.69;4988600;28;9321;-69
2023/08/09 03:50:45;;;;;;;;;4.67;2.33;;;;;14.68;78.52;101338.63;4987964;28;9412;-69
2023/08/09 03:53:12;;;;;;;;;3.67;3.67;;;;;14.66;78.16;101334.44;4985227;28;9348;-69
2023/08/09 03:55:42;;;;;;;;;4.33;4.33;;;;;14.64;78.20;101342.81;4985910;28;9413;-69
2023/08/09 03:58:08;;;;;;;;;6.25;5.50;;;;;14.62;78.41;101346.75;5005170;28;9323;-69
2023/08/09 04:00:34;;;;;;;;;3.00;3.00;;;;;14.61;78.28;101345.91;4993302;28;9563;-69
2023/08/09 04:03:02;;;;;;;;;8.33;6.00;;;;;14.61;78.41;101345.91;4987286;28;9517;-69
2023/08/09 04:05:29;;;;;;;;;4.00;4.00;;;;;14.61;78.46;101345.91;4985122;28;10129;-69
2023/08/09 04:07:57;;;;;;;;;3.00;3.00;;;;;14.60;78.32;101349.69;5005092;28;9998;-69
2023/08/09 04:10:23;;;;;;;;;3.00;3.00;;;;;14.58;78.45;101352.59;4987288;28;9403;-69
2023/08/09 04:12:50;;;;;;;;;5.00;5.00;;;;;14.58;78.47;101362.59;5005248;28;9394;-69
2023/08/09 04:15:17;;;;;;;;;6.00;5.67;;;;;14.57;78.80;101361.75;4989532;28;9383;-69
2023/08/09 04:17:43;;;;;;;;;5.25;5.00;;;;;14.57;78.54;101369.06;4988784;28;10197;-69
2023/08/09 04:20:12;;;;;;;;;3.67;3.67;;;;;14.57;78.57;101367.19;4983019;28;9712;-69
2023/08/09 04:22:38;;;;;;;;;3.75;3.75;;;;;14.56;78.74;101368.22;4986761;28;9329;-69
2023/08/09 04:25:05;;;;;;;;;6.00;6.00;;;;;14.57;78.39;101369.06;4986994;28;9542;-69
2023/08/09 04:27:33;;;;;;;;;2.33;2.33;;;;;14.55;78.55;101369.28;4987695;28;9456;-69
2023/08/09 04:30:00;;;;;;;;;3.00;3.00;;;;;14.55;78.70;101374.69;4987092;28;9344;-69
2023/08/09 04:32:27;;;;;;;;;5.00;5.00;;;;;14.55;78.84;101368.44;4987417;28;9483;-69
2023/08/09 04:34:53;;;;;;;;;2.00;2.00;;;;;14.54;78.69;101373.03;4985195;28;9416;-69
2023/08/09 04:37:20;;;;;;;;;3.00;2.33;;;;;14.56;78.72;101378.22;5002667;28;9292;-69
2023/08/09 04:39:46;;;;;;;;;4.00;4.00;;;;;14.56;78.85;101378.22;4987953;28;9412;-69
2023/08/09 04:42:13;;;;;;;;;7.00;4.00;;;;;14.57;78.99;101379.88;5008280;28;10092;-69
2023/08/09 04:44:40;;;;;;;;;4.00;4.00;;;;;14.58;79.05;101384.25;4984808;28;9224;-69
2023/08/09 04:47:06;;;;;;;;;4.00;4.00;;;;;14.59;79.21;101383.25;4986937;28;9338;-69
2023/08/09 04:49:33;;;;;;;;;2.00;2.00;;;;;14.62;79.13;101388.22;4989993;28;9366;-69
2023/08/09 04:51:59;;;;;;;;;3.00;3.00;;;;;14.64;78.97;101391.56;4985889;28;9387;-69
2023/08/09 04:54:25;;;;;;;;;3.33;3.33;;;;;14.67;79.17;101387.63;4989818;28;9214;-69
2023/08/09 04:56:52;;;;;;;;;4.33;3.00;;;;;14.69;79.36;101390.94;4992770;28;9158;-69
2023/08/09 04:59:18;;;;;;;;;4.00;2.67;;;;;14.71;79.58;101389.72;4992858;28;9280;-69
2023/08/09 05:01:45;;;;;;;;;5.00;2.67;;;;;14.73;79.18;101387.59;4984260;28;9346;-69
2023/08/09 05:04:11;;;;;;;;;9.00;5.50;;;;;14.75;79.36;101398.25;4976186;28;9345;-69
2023/08/09 05:06:39;;;;;;;;;5.00;5.00;;;;;14.77;79.69;101393.44;4989932;28;9321;-69
2023/08/09 05:09:06;;;;;;;;;3.00;2.67;;;;;14.79;79.71;101396.81;4989186;28;9247;-69
2023/08/09 05:11:32;;;;;;;;;5.00;5.00;;;;;14.82;79.98;101399.06;4990492;28;9209;-70
2023/08/09 05:13:59;;;;;;;;;4.67;4.00;;;;;14.83;79.98;101396.16;4992190;28;9243;-69
2023/08/09 05:16:26;;;;;;;;;2.00;2.00;;;;;14.87;80.48;101393.88;4988753;28;9957;-69
2023/08/09 05:18:52;;;;;;;;;3.00;2.00;;;;;14.90;80.29;101403.44;4992371;28;9222;-69
2023/08/09 05:21:19;;;;;;;;;2.33;2.33;;;;;14.93;80.18;101403.03;4987596;28;8996;-70
2023/08/09 05:23:46;;;;;;;;;2.00;2.00;;;;;14.95;80.49;101417.19;4993804;28;9159;-69
2023/08/09 05:26:12;;;;;;;;;2.00;2.00;;;;;14.97;80.61;101420.56;4988804;28;9185;-69
2023/08/09 05:28:39;;;;;;;;;3.00;3.00;;;;;15.00;80.46;101420.16;4992416;28;9194;-69
2023/08/09 05:31:05;;;;;;;;;4.33;4.33;;;;;15.04;81.03;101408.66;4983400;28;9221;-69
2023/08/09 05:33:32;;;;;;;;;6.33;6.33;;;;;15.04;80.63;101411.38;5001507;28;9969;-69
2023/08/09 05:35:59;;;;;;;;;4.00;4.00;;;;;15.03;80.66;101417.84;4992125;28;10055;-69
2023/08/09 05:38:26;;;;;;;;;4.00;4.00;;;;;15.06;81.17;101414.69;4991334;28;9301;-69
2023/08/09 05:40:54;;;;;;;;;4.33;3.67;;;;;15.09;81.35;101427.00;5003314;28;9249;-69
2023/08/09 05:43:20;;;;;;;;;4.00;3.00;;;;;15.11;81.22;101424.94;4991398;28;9277;-69
2023/08/09 05:45:47;;;;;;;;;2.00;2.00;;;;;15.17;82.28;101426.78;4986973;28;9440;-64
2023/08/09 05:48:14;;;;;;;;;4.00;4.00;;;;;15.30;82.62;101428.66;4972712;28;9196;-69
2023/08/09 05:50:40;;;;;;;;;3.33;3.33;;;;;15.37;81.60;101428.66;4978813;28;9874;-69
2023/08/09 05:53:09;;;;;;;;;6.00;5.33;;;;;15.34;81.22;101432.63;4982663;28;9096;-69
2023/08/09 05:55:36;;;;;;;;;2.33;2.33;;;;;15.34;81.21;101430.72;4989617;28;9353;-69
2023/08/09 05:58:03;;;;;;;;;4.33;4.33;;;;;15.31;81.28;101436.59;4990638;28;9014;-69
2023/08/09 06:00:30;;;;;;;;;7.00;3.00;;;;;15.28;81.39;101445.16;4982500;28;9124;-69
2023/08/09 06:02:57;;;;;;;;;3.00;3.00;;;;;15.30;81.67;101447.63;4989282;28;9114;-68
2023/08/09 06:05:25;;;;;;;;;4.33;4.33;;;;;15.27;81.48;101438.06;4989365;28;9971;-69
2023/08/09 06:07:52;;;;;;;;;4.00;4.00;;;;;15.28;81.74;101431.59;4984728;28;9164;-69
2023/08/09 06:10:20;;;;;;;;;3.67;3.67;;;;;15.30;82.14;101440.34;4988623;28;9215;-69
2023/08/09 06:12:47;;;;;;;;;3.00;3.00;;;;;15.32;82.16;101446.41;4986304;28;9092;-70
2023/08/09 06:15:14;;;;;;;;;2.00;2.00;;;;;15.39;82.00;101448.25;4987634;28;9075;-69
2023/08/09 06:17:41;;;;;;;;;3.00;3.00;;;;;15.46;82.17;101451.78;4984509;28;9093;-69
2023/08/09 06:20:08;;;;;;;;;3.00;3.00;;;;;15.54;81.96;101451.56;4985285;28;9024;-69
2023/08/09 06:22:35;;;;;;;;;2.25;2.00;;;;;15.65;82.22;101460.97;4988083;28;9021;-69
2023/08/09 06:25:01;;;;;;;;;2.33;2.33;;;;;15.69;81.72;101462.22;4991447;28;8923;-70
2023/08/09 06:27:28;;;;;;;;;4.00;4.00;;;;;15.74;81.29;101467.84;4991592;28;8931;-69
2023/08/09 06:29:54;;;;;;;;;4.00;4.00;;;;;15.78;81.08;101467.19;4988311;28;9001;-69
2023/08/09 06:32:21;;;;;;;;;3.00;3.00;;;;;15.82;81.04;101470.31;4989985;28;9101;-69
2023/08/09 06:34:48;;;;;;;;;4.33;3.33;;;;;15.84;81.06;101481.81;4991528;28;9011;-69
2023/08/09 06:37:15;;;;;;;;;2.33;2.00;;;;;15.85;80.96;101475.31;4991393;28;9820;-69
2023/08/09 06:39:42;;;;;;;;;3.00;3.00;;;;;15.86;80.89;101484.31;4988118;28;8956;-72
2023/08/09 06:42:11;;;;;;;;;4.00;4.00;;;;;15.80;81.08;101481.41;4991254;28;8991;-70
2023/08/09 06:44:39;;;;;;;;;6.00;5.00;;;;;15.81;81.20;101477.63;4990948;28;8950;-70
2023/08/09 06:47:06;;;;;;;;;2.75;2.75;;;;;15.82;81.68;101473.88;4990860;28;8915;-70
2023/08/09 06:49:32;;;;;;;;;2.75;2.75;;;;;15.87;81.64;101481.38;4989505;28;9556;-69
2023/08/09 06:52:00;;;;;;;;;1.00;1.00;;;;;15.90;81.34;101480.13;4989058;28;8826;-70
2023/08/09 06:54:27;;;;;;;;;2.00;2.00;;;;;15.92;81.57;101486.16;4990864;28;8962;-70
2023/08/09 06:56:54;;;;;;;;;5.00;2.67;;;;;15.94;81.97;101484.06;5005663;28;8938;-70
2023/08/09 06:59:21;;;;;;;;;3.00;3.00;;;;;16.00;81.65;101486.78;5004399;28;8941;-69
2023/08/09 07:01:48;;;;;;;;;2.00;2.00;;;;;16.04;81.82;101484.44;4988968;28;8857;-70
2023/08/09 07:04:16;;;;;;;;;2.00;2.00;;;;;16.07;81.63;101482.13;4987578;28;8949;-70
2023/08/09 07:06:44;;;;;;;;;1.00;1.00;;;;;16.14;81.53;101481.28;4990874;28;8884;-70
2023/08/09 07:09:12;;;;;;;;;5.33;5.33;;;;;16.16;81.51;101490.03;4989563;28;8870;-70
2023/08/09 07:11:39;;;;;;;;;4.00;4.00;;;;;16.16;81.41;101482.72;4984552;28;9016;-69
2023/08/09 07:14:06;;;;;;;;;2.00;2.00;;;;;16.18;81.84;101482.53;4988246;28;8948;-70
2023/08/09 07:16:33;;;;;;;;;4.75;3.25;;;;;16.20;81.74;101481.22;4988971;28;8861;-70
2023/08/09 07:18:59;;;;;;;;;5.00;2.67;;;;;16.24;82.24;101479.75;4989018;28;9552;-69
2023/08/09 07:21:27;;;;;;;;;2.00;1.50;;;;;16.29;81.78;101477.25;4987127;28;8980;-70
2023/08/09 07:23:54;;;;;;;;;5.00;5.00;;;;;16.34;81.83;101484.75;4990425;28;8923;-69
2023/08/09 07:26:23;;;;;;;;;3.50;2.25;;;;;16.34;82.12;101479.31;4990089;28;9698;-70
2023/08/09 07:28:50;;;;;;;;;6.50;5.00;;;;;16.37;82.19;101480.78;5005544;28;8834;-70
2023/08/09 07:31:21;;;;;;;;;4.00;4.00;;;;;16.39;82.09;101484.09;4983463;28;8859;-69
2023/08/09 07:33:48;;;;;;;;;3.67;3.67;;;;;16.42;81.82;101481.78;4987930;28;8999;-70
2023/08/09 07:36:15;;;;;;;;;3.50;3.50;;;;;16.44;81.89;101487.81;4989494;28;8939;-70
2023/08/09 07:38:41;;;;;;;;;3.00;3.00;;;;;16.50;81.86;101489.66;4986923;28;8940;-69
2023/08/09 07:41:09;;;;;;;;;3.00;3.00;;;;;16.62;82.12;101483.56;5004219;28;8968;-70
2023/08/09 07:43:36;;;;;;;;;3.00;3.00;;;;;16.71;82.18;101493.09;4989087;28;8956;-69
2023/08/09 07:46:05;;;;;;;;;2.00;2.00;;;;;16.77;81.69;101490.38;4990253;28;8842;-70
2023/08/09 07:48:33;;;;;;;;;4.25;3.00;;;;;16.82;81.62;101491.59;4988794;28;8962;-69
2023/08/09 07:51:00;;;;;;;;;2.00;2.00;;;;;16.86;81.35;101493.66;4986883;28;8838;-70
2023/08/09 07:53:26;;;;;;;;;4.50;3.75;;;;;16.88;81.23;101496.16;5005143;28;8885;-70
2023/08/09 07:55:53;;;;;;;;;1.75;1.75;;;;;16.91;80.99;101493.00;4990209;28;8830;-70
2023/08/09 07:58:20;;;;;;;;;2.00;2.00;;;;;16.99;80.91;101507.16;4989268;28;8814;-70
2023/08/09 08:00:47;;;;;;;;;1.75;1.75;;;;;17.07;80.82;101508.78;4989123;28;8939;-69
2023/08/09 08:03:17;;;;;;;;;2.00;2.00;;;;;17.12;80.10;101510.84;5004512;28;8862;-69
2023/08/09 08:05:44;;;;;;;;;1.50;1.50;;;;;17.17;79.72;101521.88;4989918;28;8834;-68
2023/08/09 08:08:14;;;;;;;;;2.00;2.00;;;;;17.12;79.79;101519.81;4989810;28;8915;-69
2023/08/09 08:10:41;;;;;;;;;1.50;1.50;;;;;17.07;79.74;101527.81;4988750;28;8865;-69
2023/08/09 08:13:08;;;;;;;;;1.75;1.75;;;;;17.05;79.80;101528.06;4992999;28;8877;-69
2023/08/09 08:15:36;;;;;;;;;3.75;2.00;;;;;17.05;79.97;101535.34;4985896;28;8853;-68
2023/08/09 08:18:04;;;;;;;;;2.00;1.50;;;;;17.06;79.74;101528.88;4992425;28;8853;-68
2023/08/09 08:20:32;;;;;;;;;3.50;3.00;;;;;17.09;79.66;101530.31;4990903;28;8854;-69
2023/08/09 08:22:59;;;;;;;;;2.25;2.00;;;;;17.13;79.24;101531.53;4994034;28;8834;-68
2023/08/09 08:25:26;;;;;;;;;1.50;1.50;;;;;17.13;78.98;101529.63;4993734;28;8856;-68
2023/08/09 08:27:52;;;;;;;;;2.50;2.00;;;;;17.18;78.77;101537.16;4993848;28;8865;-68
2023/08/09 08:30:20;;;;;;;;;2.00;2.00;;;;;17.21;78.57;101542.97;4992357;28;8957;-68
2023/08/09 08:32:48;;;;;;;;;1.00;1.00;;;;;17.24;78.24;101539.00;5000851;28;8988;-68
2023/08/09 08:35:20;;;;;;;;;3.25;3.25;;;;;17.24;78.43;101547.16;4993694;28;8845;-68
2023/08/09 08:37:53;;;;;;;;;5.50;4.00;;;;;17.19;78.39;101555.97;4993614;28;9575;-69
2023/08/09 08:40:21;;;;;;;;;2.25;2.25;;;;;17.17;78.25;101549.91;5003626;28;8853;-68
2023/08/09 08:42:48;;;;;;;;;5.75;5.00;;;;;17.14;78.64;101552.25;4985673;28;8984;-68
2023/08/09 08:45:16;;;;;;;;;4.50;2.00;;;;;17.20;78.74;101554.91;4993311;28;8842;-68
2023/08/09 08:47:44;;;;;;;;;5.25;5.00;;;;;17.26;78.53;101558.66;4985211;28;8845;-68
2023/08/09 08:50:13;;;;;;;;;3.75;3.75;;;;;17.34;78.49;101562.97;4983624;28;8846;-68
2023/08/09 08:52:42;;;;;;;;;3.25;3.25;;;;;17.43;78.57;101558.94;4986566;28;8822;-69
2023/08/09 08:55:10;;;;;;;;;1.50;1.50;;;;;17.49;77.90;101556.16;4986825;28;8858;-69
2023/08/09 08:57:38;;;;;;;;;4.00;4.00;;;;;17.57;77.75;101552.31;4991892;28;9562;-69
2023/08/09 09:00:16;;;;;;;;;5.00;5.00;;;;;17.71;77.35;101542.97;4979849;28;8853;-68
2023/08/09 09:02:55;;;;;;;;;2.00;2.00;;;;;17.78;77.05;101554.69;4986278;28;8838;-68
2023/08/09 09:05:22;;;;;;;;;3.50;3.50;;;;;17.75;76.54;101562.47;4981127;28;8869;-69
2023/08/09 09:07:50;;;;;;;;;4.50;4.50;;;;;17.72;76.50;101554.69;4981200;28;8857;-68
2023/08/09 09:10:19;;;;;;;;;3.00;3.00;;;;;17.64;76.19;101566.69;4987703;28;8857;-69
2023/08/09 09:12:50;;;;;;;;;2.00;2.00;;;;;17.58;76.07;101564.84;4985100;28;8837;-69
2023/08/09 09:15:17;;;;;;;;;2.00;2.00;;;;;17.54;76.19;101564.50;5007653;28;8880;-69
2023/08/09 09:17:45;;;;;;;;;2.50;2.00;;;;;17.60;76.04;101570.09;5049183;23;8864;-69
2023/08/09 09:20:23;;;;;;;;;4.00;4.00;;;;;17.70;75.86;101560.38;5028773;28;8844;-66
2023/08/09 09:22:51;;;;;;;;;3.00;3.00;;;;;17.78;75.51;101549.22;5024477;28;8841;-69
2023/08/09 09:25:18;;;;;;;;;4.75;4.75;;;;;17.89;75.19;101555.81;5032086;28;8832;-68
2023/08/09 09:27:50;;;;;;;;;2.75;2.00;;;;;17.98;74.79;101561.78;5012906;28;8874;-69
2023/08/09 09:30:19;;;;;;;;;4.25;4.25;;;;;18.01;74.20;101562.16;5011422;28;8823;-68
2023/08/09 09:32:51;;;;;;;;;2.00;2.00;;;;;18.06;73.65;101561.50;5012362;28;8851;-68
2023/08/09 09:35:19;;;;;;;;;6.00;5.00;;;;;18.06;73.43;101553.31;5012238;28;8917;-68
2023/08/09 09:37:54;;;;;;;;;5.75;5.25;;;;;18.12;72.69;101554.31;5010962;28;8953;-68
2023/08/09 09:40:25;;;;;;;;;3.00;3.00;;;;;18.13;72.55;101555.97;5009457;28;8869;-69
2023/08/09 09:42:55;;;;;;;;;6.75;6.25;;;;;18.19;72.31;101555.06;5004895;28;8897;-65
2023/08/09 09:45:24;;;;;;;;;2.25;2.25;;;;;18.25;72.08;101556.88;5009893;28;8921;-68
2023/08/09 09:47:54;;;;;;;;;4.00;4.00;;;;;18.24;71.12;101558.78;5011380;28;8932;-66
2023/08/09 09:50:26;;;;;;;;;2.25;2.25;;;;;18.25;69.92;101562.34;5009486;28;8940;-69
2023/08/09 09:52:54;;;;;;;;;3.00;3.00;;;;;18.32;69.76;101570.44;5010557;28;8835;-69
2023/08/09 09:55:27;;;;;;;;;2.00;2.00;;;;;18.38;69.44;101564.06;5007709;28;8912;-69
2023/08/09 09:57:55;;;;;;;;;2.50;2.00;;;;;18.44;69.38;101563.16;5020004;28;8965;-69
2023/08/09 10:00:22;;;;;;;;;9.50;4.00;;;;;18.45;69.53;101573.81;5011486;28;9576;-69
2023/08/09 10:02:51;;;;;;;;;3.00;3.00;;;;;18.47;69.65;101579.03;5011654;28;9632;-66
2023/08/09 10:05:21;;;;;;;;;3.00;3.00;;;;;18.47;69.48;101581.78;5009443;28;9517;-66
2023/08/09 10:07:49;;;;;;;;;3.00;3.00;;;;;18.42;68.80;101589.81;5011800;28;8843;-66
2023/08/09 10:10:20;;;;;;;;;3.00;1.25;;;;;18.39;68.01;101595.72;5011509;28;8850;-66
2023/08/09 10:12:51;;;;;;;;;4.00;3.50;;;;;18.44;66.73;101591.25;5011133;28;8908;-66
2023/08/09 10:15:22;;;;;;;;;1.75;1.75;;;;;18.51;66.74;101591.16;5008383;28;8831;-67
2023/08/09 10:17:52;;;;;;;;;2.00;2.00;;;;;18.61;66.97;101591.47;5009331;28;8859;-67
2023/08/09 10:20:20;;;;;;;;;0.75;0.75;;;;;18.69;67.04;101590.31;5009492;28;8879;-67
2023/08/09 10:22:48;;;;;;;;;2.00;2.00;;;;;18.67;66.66;101593.25;5010962;28;8909;-67
2023/08/09 10:25:14;;;;;;;;;1.75;1.75;;;;;18.69;65.44;101593.03;5005713;28;8827;-66
2023/08/09 10:27:59;;;;;;;;;2.00;2.00;;;;;18.78;65.04;101595.25;5009381;28;8831;-66
2023/08/09 10:30:30;;;;;;;;;1.25;1.25;;;;;18.88;63.90;101596.56;5009657;28;8859;-67
2023/08/09 10:32:57;;;;;;;;;2.25;1.25;;;;;18.84;63.68;101596.22;5008370;28;8838;-67
2023/08/09 10:35:48;;;;;;;;;1.00;1.00;;;;;18.90;63.35;101595.28;5008047;28;8900;-67
2023/08/09 10:38:20;;;;;;;;;1.75;1.75;;;;;18.89;63.77;101593.63;5010530;28;8828;-67
2023/08/09 10:40:53;;;;;;;;;1.75;1.75;;;;;18.91;63.88;101599.69;5010430;28;8962;-67
2023/08/09 10:43:22;;;;;;;;;1.50;1.50;;;;;18.92;63.65;101606.81;5008560;28;8854;-67
2023/08/09 10:45:51;;;;;;;;;1.00;1.00;;;;;18.92;64.39;101600.50;5010207;28;8839;-67
2023/08/09 10:48:25;;;;;;;;;0.75;0.75;;;;;18.97;64.27;101615.13;5011088;28;8839;-67
2023/08/09 10:51:02;;;;;;;;;0.75;0.75;;;;;19.00;63.24;101608.41;5009761;28;8905;-67
2023/08/09 10:53:28;;;;;;;;;2.00;2.00;;;;;19.15;63.40;101611.50;5010098;28;8854;-66
2023/08/09 10:55:57;;;;;;;;;1.00;1.00;;;;;19.23;63.03;101613.09;5010625;28;8831;-67
2023/08/09 10:58:30;;;;;;;;;3.50;2.00;;;;;19.23;63.20;101624.00;5010980;28;9559;-67
2023/08/09 11:00:57;;;;;;;;;1.00;1.00;;;;;19.10;63.06;101624.19;5010170;28;8847;-67
2023/08/09 11:03:23;;;;;;;;;1.00;1.00;;;;;19.00;63.45;101628.31;5006888;28;8951;-66
2023/08/09 11:05:51;;;;;;;;;1.50;1.50;;;;;19.01;62.97;101629.16;5010535;28;8935;-67
2023/08/09 11:08:18;;;;;;;;;1.50;1.25;;;;;19.01;63.82;101637.34;5010098;28;8839;-67
2023/08/09 11:10:46;;;;;;;;;1.00;1.00;;;;;19.02;64.55;101639.00;5010301;28;9571;-67
2023/08/09 11:13:15;;;;;;;;;2.50;2.50;;;;;18.98;64.77;101640.53;4995297;28;8829;-67
2023/08/09 11:15:44;;;;;;;;;1.25;1.00;;;;;18.93;65.07;101635.75;5004133;28;9610;-67
2023/08/09 11:18:11;;;;;;;;;1.00;1.00;;;;;18.93;65.33;101629.47;5029027;28;8856;-67
2023/08/09 11:20:39;;;;;;;;;2.00;2.00;;;;;19.07;64.68;101638.31;5007485;28;8843;-69
2023/08/09 11:23:06;;;;;;;;;1.00;1.00;;;;;19.13;64.84;101635.50;5009679;28;8855;-66
2023/08/09 11:25:35;;;;;;;;;0.75;0.75;;;;;19.29;63.75;101641.38;5010058;28;8843;-68
2023/08/09 11:28:04;;;;;;;;;0.50;0.50;;;;;19.43;62.98;101635.44;5010057;28;8851;-66
2023/08/09 11:30:32;;;;;;;;;2.00;1.25;;;;;19.45;62.83;101636.06;4989231;28;8827;-66
2023/08/09 11:33:01;;;;;;;;;3.00;1.75;;;;;19.56;62.52;101641.78;5006084;28;8843;-68
2023/08/09 11:35:39;;;;;;;;;1.00;1.00;;;;;19.61;62.48;101647.38;5009611;28;8894;-68
2023/08/09 11:38:12;;;;;;;;;0.00;0.00;;;;;19.62;61.30;101649.06;5005280;28;8912;-68